Terminal Aerodrome Forecast
Issued by NWS Shreveport, LA

Home | Current Version | Previous Version | Text Only | Print | Product List | Glossary On
Versions: 1 2 3 4 5 6 7 8 9 10 11 12 13 14 15 16 17 18 19 20 21 22 23 24 25 26 27
000
FTUS44 KSHV 040300 AAB
TAFTYR
TAF AMD
KTYR 040344Z 0404/0424 VRB04KT 2SM -DZ BR OVC003
      TEMPO 0404/0408 5SM BR SCT005 OVC045
     FM041500 21010KT P6SM VCTS BKN010CB
     FM041900 34014G22KT P6SM -RA OVC005=

USA.gov is the U.S. government's official web portal to all federal, state and local government web resources and services.